Artvin — 9HA2782 — position and weather

sailwx.info

Track history (hours):
 
Tides and Currents Weather Stations Pressure Air Temp Water Temp Dewpoint Dewpoint Depression Visibility Wind Speed Wind Dir Waves Ship Positions

Artvin

Last reported at 2014-Aug-29 06:31 UTC. Time now 2014-Sep-01 11:42 UTC.
Position N 36°56' W 075°57'.

Length 229 m; draft 13.2 m.

Type: Cargo ship. MMSI: 215678000.

Date/timePositionNaut miles runAvg speedWind from/ knotsBaromVisibWave heightAir tempDewpointWater temp
2014-Aug-29 06:31N 36°56' W 075°57'1010.3
2014-Aug-29 05:30N 36°59' W 076°10'9 9.5
2014-Aug-29 04:33N 36°58' W 076°21'4 2.6
2014-Aug-29 03:05N 36°58' W 076°25'0 0.0
2014-Aug-28 17:05N 36°58' W 076°25'0 0.0
2014-Aug-28 14:29N 36°58' W 076°25'0 0.0
2014-Aug-28 04:32N 36°58' W 076°25'0 0.0
2014-Aug-27 22:18N 36°58' W 076°25'2010.2
2014-Aug-27 20:23N 36°57' W 076°01'8410.3
2014-Aug-27 12:17N 36°52' W 074°17'1910.9
2014-Aug-27 10:31N 36°54' W 073°53'1010.4
2014-Aug-27 09:33N 36°54' W 073°40'1111.5
2014-Aug-27 08:33N 36°55' W 073°26'1212.1
2014-Aug-27 07:33N 36°55' W 073°11'19 9.1
2014-Aug-27 05:29N 36°58' W 072°48'7 7.1
2014-Aug-27 04:32N 36°58' W 072°39'16 7.5
2014-Aug-27 02:22N 36°58' W 072°19'19 8.3
2014-Aug-27 00:06N 36°59' W 071°55'4 7.9
2014-Aug-26 23:33N 36°59' W 071°50'10 9.7
2014-Aug-26 22:33N 36°59' W 071°38'10 9.7
2014-Aug-26 21:30N 36°60' W 071°25'168 8.0
2014-Aug-26 00:20N 37°55' W 068°05'  
Track history (hours):
 
Tides and Currents Weather Stations Pressure Air Temp Water Temp Dewpoint Dewpoint Depression Visibility Wind Speed Wind Dir Waves Ship Positions

Artvin

Last reported at 2014-Aug-29 06:31 UTC. Time now 2014-Sep-01 11:42 UTC.
Position N 36°56' W 075°57'.

Length 229 m; draft 13.2 m.

Type: Cargo ship. MMSI: 215678000.

Date/timePositionNaut miles runAvg speedWind from/ knotsBaromVisibWave heightAir tempDewpointWater temp
2014-Aug-29 06:31N 36°56' W 075°57'1010.3
2014-Aug-29 05:30N 36°59' W 076°10'9 9.5
2014-Aug-29 04:33N 36°58' W 076°21'4 2.6
2014-Aug-29 03:05N 36°58' W 076°25'0 0.0
2014-Aug-28 17:05N 36°58' W 076°25'0 0.0
2014-Aug-28 14:29N 36°58' W 076°25'0 0.0
2014-Aug-28 04:32N 36°58' W 076°25'0 0.0
2014-Aug-27 22:18N 36°58' W 076°25'2010.2
2014-Aug-27 20:23N 36°57' W 076°01'8410.3
2014-Aug-27 12:17N 36°52' W 074°17'1910.9
2014-Aug-27 10:31N 36°54' W 073°53'1010.4
2014-Aug-27 09:33N 36°54' W 073°40'1111.5
2014-Aug-27 08:33N 36°55' W 073°26'1212.1
2014-Aug-27 07:33N 36°55' W 073°11'19 9.1
2014-Aug-27 05:29N 36°58' W 072°48'7 7.1
2014-Aug-27 04:32N 36°58' W 072°39'16 7.5
2014-Aug-27 02:22N 36°58' W 072°19'19 8.3
2014-Aug-27 00:06N 36°59' W 071°55'4 7.9
2014-Aug-26 23:33N 36°59' W 071°50'10 9.7
2014-Aug-26 22:33N 36°59' W 071°38'10 9.7
2014-Aug-26 21:30N 36°60' W 071°25'168 8.0
2014-Aug-26 00:20N 37°55' W 068°05'  

Dump ship's entire track history